McDaniels, Kentucky
Current Conditions -  °F | °C
As of 10:58 AM on Thursday 30 Oct 2014 (Local Time) from KFTK Reporting Station
Scattered Clouds Scattered Clouds  
Wind Chill: 50°   Ceiling: Unl
Heat Index: 50°   Visibility: 10mi
Dew Point: 35°   Wind: 1mph
Humidity: 57%   Direction: NA
Pressure: 30.15"   Gusts: NA
Location:  37.61°N, 86.42°W
Report Text: KFTK 301558Z VRB01KT 10SM SCT035 10/02 A3015 RMK AO2A SLP216 T01010019
Loading
Personal Weather Stations






























Interactive Weather Map
Tropical Storm Tracking
New forecast layout! Learn more

10-Day Weather Forecast

Advertisements
Track Severe Weather on mobile